Time;durP1;ratioP1;P1;durP2;ratioP2;P2;SDS_P1;SDS_P2;PMS_P1;PMS_P2;Temp;Humidity;BMP_temperature;BMP_pressure;BME280_temperature;BME280_humidity;BME280_pressure;Samples;Min_cycle;Max_cycle;Signal;HPM_P1;HPM_P2
2023/01/03 00:01:30;;;;;;;0.95;0.75;;;8.60;99.90;;;;;;5075121;28;20296;-70
2023/01/03 00:03:56;;;;;;;0.40;0.40;;;8.60;99.90;;;;;;5075483;28;20166;-71
2023/01/03 00:06:26;;;;;;;0.30;0.30;;;8.60;99.90;;;;;;5075427;28;20184;-69
2023/01/03 00:08:54;;;;;;;0.30;0.30;;;8.70;99.90;;;;;;5075018;28;20208;-69
2023/01/03 00:12:22;;;;;;;1.05;1.05;;;8.60;99.90;;;;;;5074912;28;20598;-71
2023/01/03 00:14:10;;;;;;;0.30;0.30;;;8.60;99.90;;;;;;5074430;28;20190;-68
2023/01/03 00:16:36;;;;;;;0.30;0.30;;;8.50;99.90;;;;;;5074978;28;20177;-69
2023/01/03 00:19:13;;;;;;;0.60;0.60;;;8.50;99.90;;;;;;5074988;28;20202;-68
2023/01/03 00:21:40;;;;;;;0.40;0.40;;;8.60;99.90;;;;;;5074871;28;20217;-70
2023/01/03 00:24:06;;;;;;;0.40;0.40;;;8.40;99.90;;;;;;5074734;28;20169;-69
2023/01/03 00:26:32;;;;;;;0.30;0.30;;;8.40;99.90;;;;;;5075028;28;20202;-70
2023/01/03 00:28:58;;;;;;;0.30;0.30;;;8.40;99.90;;;;;;5074891;28;20253;-69
2023/01/03 00:31:24;;;;;;;0.30;0.30;;;8.30;99.90;;;;;;5075018;28;20331;-67
2023/01/03 00:33:50;;;;;;;0.30;0.30;;;8.30;99.90;;;;;;5074479;28;20747;-71
2023/01/03 00:36:16;;;;;;;0.30;0.30;;;8.20;99.90;;;;;;5074036;28;20816;-69
2023/01/03 00:38:42;;;;;;;0.40;0.40;;;8.20;99.90;;;;;;5074552;28;20220;-71
2023/01/03 00:41:11;;;;;;;0.40;0.40;;;8.20;99.90;;;;;;5074746;28;20190;-69
2023/01/03 00:43:38;;;;;;;0.52;0.40;;;8.10;99.90;;;;;;5074845;28;20241;-69
2023/01/03 00:46:04;;;;;;;0.98;0.98;;;8.10;99.90;;;;;;5073943;28;20168;-69
2023/01/03 00:48:31;;;;;;;0.40;0.40;;;8.10;99.90;;;;;;5074314;28;20181;-68
2023/01/03 00:51:02;;;;;;;0.77;0.77;;;8.10;99.90;;;;;;5074390;28;20205;-70
2023/01/03 00:53:28;;;;;;;0.70;0.70;;;8.10;99.90;;;;;;5074615;28;20241;-70
2023/01/03 00:55:54;;;;;;;0.30;0.30;;;8.10;99.90;;;;;;5074451;28;20205;-69
2023/01/03 00:58:20;;;;;;;0.30;0.30;;;8.10;99.90;;;;;;5074466;28;20185;-71
2023/01/03 01:00:45;;;;;;;0.30;0.30;;;8.20;99.90;;;;;;5073859;28;20185;-71
2023/01/03 01:03:11;;;;;;;0.30;0.30;;;8.10;99.90;;;;;;5074084;28;20510;-69
2023/01/03 01:05:37;;;;;;;0.30;0.30;;;8.20;99.90;;;;;;5074033;28;20248;-71
2023/01/03 01:08:02;;;;;;;0.50;0.50;;;8.10;99.90;;;;;;5073566;28;20173;-71
2023/01/03 01:10:28;;;;;;;0.40;0.40;;;8.10;99.90;;;;;;5074291;28;20177;-70
2023/01/03 01:12:55;;;;;;;0.30;0.30;;;8.20;99.90;;;;;;5074342;28;20193;-69
2023/01/03 01:15:21;;;;;;;0.60;0.60;;;8.20;99.90;;;;;;5073572;28;20161;-72
2023/01/03 01:17:47;;;;;;;1.30;0.63;;;8.20;99.90;;;;;;5073818;28;20212;-68
2023/01/03 01:20:12;;;;;;;4.77;1.93;;;8.10;99.90;;;;;;5073913;28;20408;-67
2023/01/03 01:22:38;;;;;;;0.40;0.40;;;8.10;99.90;;;;;;5074303;28;20200;-70
2023/01/03 01:25:04;;;;;;;0.60;0.60;;;8.00;99.90;;;;;;5073677;28;20178;-68
2023/01/03 01:27:30;;;;;;;0.40;0.40;;;8.10;99.90;;;;;;5074228;28;20173;-69
2023/01/03 01:29:56;;;;;;;0.60;0.60;;;8.20;99.90;;;;;;5073560;28;20411;-69
2023/01/03 01:32:22;;;;;;;15.43;1.03;;;8.20;99.90;;;;;;5073438;28;20201;-68
2023/01/03 01:34:47;;;;;;;0.50;0.50;;;8.20;99.90;;;;;;5073379;28;20204;-68
2023/01/03 01:37:13;;;;;;;0.30;0.30;;;8.20;99.90;;;;;;5073376;28;20709;-68
2023/01/03 01:39:38;;;;;;;0.40;0.40;;;8.30;99.90;;;;;;5073714;28;20168;-68
2023/01/03 01:44:54;;;;;;;0.50;0.50;;;8.30;99.90;;;;;;5073677;28;20193;-67
2023/01/03 01:47:33;;;;;;;1.37;1.37;;;8.30;99.90;;;;;;5073687;28;20178;-71
2023/01/03 01:50:09;;;;;;;0.40;0.40;;;8.40;99.90;;;;;;5073953;28;20173;-68
2023/01/03 01:52:37;;;;;;;0.40;0.40;;;8.40;99.90;;;;;;5073324;28;20564;-69
2023/01/03 01:55:05;;;;;;;0.35;0.35;;;8.40;99.90;;;;;;5073093;28;20329;-69
2023/01/03 01:57:34;;;;;;;0.40;0.40;;;8.40;99.90;;;;;;5073372;28;20275;-67
2023/01/03 01:59:59;;;;;;;0.90;0.90;;;8.30;99.90;;;;;;5073440;28;20242;-70
2023/01/03 02:02:26;;;;;;;0.30;0.30;;;8.30;99.90;;;;;;5073713;28;20193;-68
2023/01/03 02:04:54;;;;;;;0.30;0.30;;;8.20;99.90;;;;;;5073714;28;20177;-71
2023/01/03 02:07:21;;;;;;;2.80;1.75;;;8.20;99.90;;;;;;5073630;28;20180;-69
2023/01/03 02:09:48;;;;;;;0.50;0.50;;;8.20;99.90;;;;;;5073320;28;20223;-68
2023/01/03 02:16:02;;;;;;;0.30;0.30;;;8.10;99.90;;;;;;5073442;28;20538;-71
2023/01/03 02:18:49;;;;;;;1.45;0.70;;;8.10;99.90;;;;;;5073336;28;20207;-68
2023/01/03 02:21:45;;;;;;;0.40;0.40;;;8.10;99.90;;;;;;5075426;28;20204;-71
2023/01/03 02:24:47;;;;;;;1.20;0.75;;;8.10;99.90;;;;;;5076918;28;20177;-69
2023/01/03 02:27:34;;;;;;;0.30;0.30;;;8.20;99.90;;;;;;5076899;28;20202;-70
2023/01/03 02:30:15;;;;;;;0.30;0.30;;;8.30;99.90;;;;;;5077683;28;20173;-69
2023/01/03 02:32:46;;;;;;;0.40;0.40;;;8.20;99.90;;;;;;5076908;28;20200;-69
2023/01/03 02:35:22;;;;;;;0.30;0.30;;;8.20;99.90;;;;;;5076915;28;20265;-71
2023/01/03 02:38:12;;;;;;;0.40;0.40;;;8.20;99.90;;;;;;5076466;28;20238;-69
2023/01/03 02:41:04;;;;;;;0.85;0.85;;;8.20;99.90;;;;;;5076551;28;20172;-70
2023/01/03 02:43:47;;;;;;;0.40;0.40;;;8.30;99.90;;;;;;5076459;28;20177;-71
2023/01/03 02:46:31;;;;;;;0.57;0.57;;;8.40;99.90;;;;;;5076785;28;20231;-69
2023/01/03 02:49:02;;;;;;;0.40;0.40;;;8.40;99.90;;;;;;5077079;28;20173;-70
2023/01/03 02:51:38;;;;;;;0.50;0.50;;;8.40;99.90;;;;;;5076623;28;20194;-70
2023/01/03 02:54:08;;;;;;;0.40;0.40;;;8.30;99.90;;;;;;5076628;28;20165;-69
2023/01/03 02:56:47;;;;;;;0.82;0.80;;;8.20;99.90;;;;;;5076749;28;20193;-71
2023/01/03 02:59:20;;;;;;;1.13;0.95;;;8.20;99.90;;;;;;5076446;28;20288;-70
2023/01/03 03:01:49;;;;;;;1.20;1.20;;;8.10;99.90;;;;;;5076230;28;20589;-70
2023/01/03 03:04:16;;;;;;;0.40;0.40;;;8.10;99.90;;;;;;5076119;28;20294;-70
2023/01/03 03:07:01;;;;;;;0.43;0.43;;;8.00;99.90;;;;;;5076256;28;20547;-70
2023/01/03 03:09:26;;;;;;;0.40;0.40;;;8.00;99.90;;;;;;5076489;28;20173;-71
2023/01/03 03:14:49;;;;;;;1.00;0.45;;;8.00;99.90;;;;;;5075832;28;20259;-69
2023/01/03 03:17:27;;;;;;;0.40;0.40;;;8.00;99.90;;;;;;5076266;28;20215;-68
2023/01/03 03:25:43;;;;;;;0.85;0.73;;;8.20;99.90;;;;;;5076173;28;20223;-71
2023/01/03 03:31:00;;;;;;;0.50;0.50;;;8.20;99.90;;;;;;5075599;28;20587;-70
2023/01/03 03:33:29;;;;;;;0.40;0.40;;;8.20;99.90;;;;;;5076204;28;20170;-68
2023/01/03 03:36:09;;;;;;;0.75;0.75;;;8.20;99.90;;;;;;5075834;28;20200;-69
2023/01/03 03:38:39;;;;;;;0.60;0.55;;;8.20;99.90;;;;;;5076095;28;20204;-72
2023/01/03 03:47:33;;;;;;;0.50;0.40;;;8.10;99.90;;;;;;5076047;28;20551;-68
2023/01/03 03:50:22;;;;;;;1.02;0.70;;;8.20;99.90;;;;;;5075726;28;20578;-68
2023/01/03 03:52:52;;;;;;;0.40;0.40;;;8.20;99.90;;;;;;5075444;28;20205;-70
2023/01/03 03:55:26;;;;;;;0.40;0.40;;;8.20;99.90;;;;;;5075177;28;20173;-69
2023/01/03 03:57:57;;;;;;;0.93;0.70;;;8.10;99.90;;;;;;5075378;28;20197;-68
2023/01/03 04:00:30;;;;;;;0.77;0.60;;;8.00;99.90;;;;;;5075503;28;20209;-69
2023/01/03 04:02:59;;;;;;;0.30;0.30;;;7.90;99.90;;;;;;5075543;28;20195;-68
2023/01/03 04:05:28;;;;;;;0.30;0.30;;;8.00;99.90;;;;;;5074871;28;20548;-70
2023/01/03 04:07:53;;;;;;;0.30;0.30;;;8.00;99.90;;;;;;5075508;28;20267;-68
2023/01/03 04:10:22;;;;;;;0.30;0.30;;;8.00;99.90;;;;;;5074870;28;20267;-70
2023/01/03 04:12:49;;;;;;;0.95;0.70;;;8.10;99.90;;;;;;5075000;28;20193;-71
2023/01/03 04:15:15;;;;;;;0.38;0.38;;;8.10;99.90;;;;;;5074892;28;20173;-67
2023/01/03 04:17:41;;;;;;;0.80;0.80;;;8.10;99.90;;;;;;5075112;28;20201;-68
2023/01/03 04:20:07;;;;;;;0.40;0.40;;;8.10;99.90;;;;;;5075256;28;20579;-71
2023/01/03 04:22:33;;;;;;;1.73;1.35;;;8.10;99.90;;;;;;5075094;28;20423;-71
2023/01/03 04:24:58;;;;;;;0.87;0.70;;;8.10;99.90;;;;;;5074517;28;20302;-70
2023/01/03 04:27:24;;;;;;;2.00;1.90;;;8.10;99.90;;;;;;5074706;28;20184;-68
2023/01/03 04:29:49;;;;;;;0.60;0.60;;;8.20;99.90;;;;;;5074844;28;20650;-70
2023/01/03 04:32:15;;;;;;;4.20;1.53;;;8.30;99.90;;;;;;5074841;28;20590;-71
2023/01/03 04:34:41;;;;;;;0.83;0.83;;;8.30;99.90;;;;;;5074631;28;20267;-70
2023/01/03 04:37:06;;;;;;;0.40;0.40;;;8.20;99.90;;;;;;5074524;28;20200;-69
2023/01/03 04:39:32;;;;;;;0.67;0.67;;;8.10;99.90;;;;;;5074349;28;20175;-67
2023/01/03 04:42:00;;;;;;;0.70;0.70;;;8.00;99.90;;;;;;5073857;28;20234;-71
2023/01/03 04:44:26;;;;;;;0.40;0.40;;;8.00;99.90;;;;;;5074439;28;20167;-68
2023/01/03 04:46:52;;;;;;;0.50;0.50;;;8.00;99.90;;;;;;5074619;28;20172;-69
2023/01/03 04:49:18;;;;;;;0.67;0.67;;;8.00;99.90;;;;;;5074689;28;20575;-71
2023/01/03 04:51:43;;;;;;;0.50;0.50;;;8.00;99.90;;;;;;5074370;28;20452;-70
2023/01/03 04:54:09;;;;;;;0.30;0.30;;;8.10;99.90;;;;;;5074094;28;20422;-70
2023/01/03 04:56:36;;;;;;;0.60;0.60;;;8.00;99.90;;;;;;5074163;28;20186;-71
2023/01/03 04:59:02;;;;;;;0.40;0.40;;;8.00;99.90;;;;;;5074214;28;20309;-71
2023/01/03 05:01:28;;;;;;;0.52;0.52;;;7.90;99.90;;;;;;5074321;28;20199;-68
2023/01/03 05:03:58;;;;;;;0.40;0.40;;;7.90;99.90;;;;;;5074511;28;20166;-71
2023/01/03 05:06:25;;;;;;;0.40;0.40;;;7.90;99.90;;;;;;5074384;28;20191;-69
2023/01/03 05:08:50;;;;;;;1.60;1.08;;;7.90;99.90;;;;;;5073934;28;20615;-71
2023/01/03 05:11:16;;;;;;;0.97;0.97;;;7.80;99.90;;;;;;5073926;28;20193;-69
2023/01/03 05:13:42;;;;;;;0.40;0.40;;;7.90;99.90;;;;;;5074195;28;20174;-67
2023/01/03 05:16:11;;;;;;;0.50;0.50;;;7.80;99.90;;;;;;5074114;28;20403;-68
2023/01/03 05:18:37;;;;;;;0.30;0.30;;;7.80;99.90;;;;;;5074254;28;20472;-69
2023/01/03 05:26:47;;;;;;;0.30;0.30;;;7.80;99.90;;;;;;5074224;28;20180;-70
2023/01/03 05:29:17;;;;;;;1.27;1.00;;;7.80;99.90;;;;;;5073592;28;20177;-68
2023/01/03 05:31:42;;;;;;;0.40;0.40;;;7.80;99.90;;;;;;5073610;28;20441;-69
2023/01/03 05:34:08;;;;;;;0.30;0.30;;;8.00;99.90;;;;;;5073585;28;20177;-69
2023/01/03 05:36:34;;;;;;;0.80;0.50;;;8.00;99.90;;;;;;5073590;28;20212;-68
2023/01/03 05:38:59;;;;;;;0.40;0.40;;;7.90;99.90;;;;;;5073952;28;20554;-71
2023/01/03 05:44:09;;;;;;;0.40;0.40;;;7.80;99.90;;;;;;5073402;28;20704;-70
2023/01/03 05:46:35;;;;;;;0.30;0.30;;;7.80;99.90;;;;;;5073618;28;20175;-70
2023/01/03 05:49:00;;;;;;;0.80;0.63;;;7.90;99.90;;;;;;5073701;28;20660;-69
2023/01/03 05:51:26;;;;;;;1.47;0.67;;;7.90;99.90;;;;;;5073751;28;20199;-69
2023/01/03 05:53:51;;;;;;;0.30;0.30;;;7.80;99.90;;;;;;5074820;28;20646;-69
2023/01/03 05:56:17;;;;;;;0.30;0.30;;;7.80;99.90;;;;;;5077973;28;20204;-70
2023/01/03 05:58:43;;;;;;;0.40;0.40;;;7.80;99.90;;;;;;5077425;28;20266;-70
2023/01/03 06:01:10;;;;;;;0.30;0.30;;;7.80;99.90;;;;;;5077537;28;20193;-69
2023/01/03 06:03:36;;;;;;;0.30;0.30;;;7.80;99.90;;;;;;5077301;28;20173;-71
2023/01/03 06:06:03;;;;;;;1.17;0.63;;;7.80;99.90;;;;;;5077228;28;20176;-69
2023/01/03 06:08:29;;;;;;;0.50;0.50;;;7.90;99.90;;;;;;5077381;28;20598;-68
2023/01/03 06:10:54;;;;;;;0.40;0.40;;;7.90;99.90;;;;;;5077371;28;20170;-71
2023/01/03 06:13:20;;;;;;;0.40;0.40;;;7.90;99.90;;;;;;5077192;28;20258;-70
2023/01/03 06:17:53;;;;;;;0.40;0.40;;;7.80;99.90;;;;;;5075863;28;20518;-71
2023/01/03 06:18:34;;;;;;;0.30;0.30;;;7.80;99.90;;;;;;5076986;28;20219;-71
2023/01/03 06:21:02;;;;;;;0.40;0.40;;;7.80;99.90;;;;;;5077270;28;20193;-68
2023/01/03 06:23:27;;;;;;;1.25;1.25;;;7.80;99.90;;;;;;5076285;28;20686;-69
2023/01/03 06:25:53;;;;;;;3.50;0.63;;;7.80;99.90;;;;;;5076818;28;20259;-68
2023/01/03 06:28:19;;;;;;;0.40;0.40;;;7.90;99.90;;;;;;5077338;28;20177;-72
2023/01/03 06:30:46;;;;;;;0.30;0.30;;;7.80;99.90;;;;;;5077004;28;20170;-69
2023/01/03 06:33:13;;;;;;;0.40;0.40;;;7.70;99.90;;;;;;5075476;28;20173;-71
2023/01/03 06:35:39;;;;;;;0.60;0.60;;;7.80;99.90;;;;;;5076585;28;20188;-70
2023/01/03 06:38:04;;;;;;;0.30;0.30;;;7.80;99.90;;;;;;5076550;28;20229;-70
2023/01/03 06:40:30;;;;;;;0.30;0.30;;;7.80;99.90;;;;;;5076695;28;20610;-71
2023/01/03 06:42:56;;;;;;;0.37;0.30;;;7.80;99.90;;;;;;5076696;28;20184;-71
2023/01/03 06:53:40;;;;;;;0.30;0.30;;;7.60;99.90;;;;;;5076377;28;20259;-71
2023/01/03 06:56:06;;;;;;;0.40;0.40;;;7.60;99.90;;;;;;5076831;28;20644;-70
2023/01/03 06:58:32;;;;;;;0.30;0.30;;;7.60;99.90;;;;;;5076651;28;20602;-71
2023/01/03 07:01:02;;;;;;;0.30;0.30;;;7.70;99.90;;;;;;5076313;28;20188;-68
2023/01/03 07:03:28;;;;;;;0.40;0.40;;;7.70;99.90;;;;;;5076534;28;20201;-70
2023/01/03 07:05:54;;;;;;;0.73;0.65;;;7.70;99.90;;;;;;5075072;28;20177;-67
2023/01/03 07:08:19;;;;;;;0.70;0.70;;;7.60;99.90;;;;;;5075929;28;20191;-70
2023/01/03 07:10:45;;;;;;;0.73;0.73;;;7.70;99.90;;;;;;5074044;28;20596;-71
2023/01/03 07:15:55;;;;;;;1.52;1.42;;;7.70;99.90;;;;;;5076021;28;20267;-69
2023/01/03 07:18:21;;;;;;;0.60;0.60;;;7.80;99.90;;;;;;5076241;28;20287;-70
2023/01/03 07:20:46;;;;;;;0.40;0.40;;;7.80;99.90;;;;;;5076114;28;20218;-68
2023/01/03 07:23:13;;;;;;;0.60;0.60;;;7.90;99.90;;;;;;5074095;28;20169;-68
2023/01/03 07:25:40;;;;;;;1.40;1.40;;;7.90;99.90;;;;;;5075689;28;20168;-69
2023/01/03 07:28:11;;;;;;;0.40;0.40;;;7.80;99.90;;;;;;5076447;28;20531;-70
2023/01/03 07:30:38;;;;;;;0.30;0.30;;;7.80;99.90;;;;;;5076112;28;20204;-71
2023/01/03 07:33:05;;;;;;;1.67;0.90;;;7.70;99.90;;;;;;5075956;28;20169;-67
2023/01/03 07:35:35;;;;;;;0.52;0.52;;;7.70;99.90;;;;;;5075453;28;20177;-70
2023/01/03 07:38:02;;;;;;;1.02;0.60;;;7.70;99.90;;;;;;5074055;28;20693;-69
2023/01/03 07:40:28;;;;;;;0.40;0.40;;;7.80;99.90;;;;;;5076162;28;20352;-68
2023/01/03 07:45:45;;;;;;;0.40;0.40;;;7.90;99.90;;;;;;5075602;28;20415;-69
2023/01/03 07:48:10;;;;;;;0.50;0.50;;;7.90;99.90;;;;;;5075617;28;20569;-70
2023/01/03 07:50:37;;;;;;;0.33;0.33;;;7.90;99.90;;;;;;5075868;28;20173;-69
2023/01/03 07:53:04;;;;;;;0.40;0.40;;;7.90;99.90;;;;;;5075924;28;20203;-68
2023/01/03 07:55:32;;;;;;;0.82;0.82;;;8.00;99.90;;;;;;5075132;28;20177;-71
2023/01/03 07:57:57;;;;;;;0.95;0.95;;;8.10;99.90;;;;;;5075485;28;20193;-70
2023/01/03 08:00:23;;;;;;;0.60;0.60;;;8.10;99.90;;;;;;5075147;28;20219;-69
2023/01/03 08:02:54;;;;;;;0.40;0.40;;;8.10;99.90;;;;;;5074915;28;20600;-70
2023/01/03 08:05:21;;;;;;;6.25;1.33;;;8.00;99.90;;;;;;5075120;28;20169;-68
2023/01/03 08:07:50;;;;;;;0.40;0.40;;;8.10;99.90;;;;;;5075340;28;20224;-70
2023/01/03 08:13:17;;;;;;;1.08;1.05;;;8.20;99.90;;;;;;5083094;28;20178;-71
2023/01/03 08:15:54;;;;;;;0.77;0.77;;;8.30;99.90;;;;;;5074715;28;20194;-70
2023/01/03 08:18:26;;;;;;;0.73;0.73;;;8.20;99.90;;;;;;5073816;28;20584;-71
2023/01/03 08:20:54;;;;;;;0.95;0.93;;;8.30;99.90;;;;;;5074832;28;20172;-70
2023/01/03 08:23:20;;;;;;;0.40;0.40;;;8.30;99.90;;;;;;5074846;28;20170;-70
2023/01/03 08:25:45;;;;;;;0.50;0.50;;;8.30;99.90;;;;;;5074511;28;20569;-69
2023/01/03 08:28:11;;;;;;;2.07;1.87;;;8.40;99.90;;;;;;5074672;28;20174;-70
2023/01/03 08:30:41;;;;;;;0.60;0.60;;;8.50;99.90;;;;;;5074292;28;20173;-72
2023/01/03 08:33:10;;;;;;;0.52;0.52;;;8.40;99.90;;;;;;5074759;28;20169;-71
2023/01/03 08:35:38;;;;;;;1.63;1.52;;;8.50;99.90;;;;;;5074232;28;20177;-69
2023/01/03 08:38:07;;;;;;;0.50;0.50;;;8.60;99.90;;;;;;5073812;28;20935;-69
2023/01/03 08:40:35;;;;;;;2.25;0.93;;;8.60;99.90;;;;;;5073103;28;20182;-71
2023/01/03 08:43:04;;;;;;;0.50;0.50;;;8.70;99.90;;;;;;5074865;28;20193;-70
2023/01/03 08:45:29;;;;;;;0.45;0.45;;;8.70;99.90;;;;;;5074253;28;20166;-69
2023/01/03 08:47:57;;;;;;;0.43;0.43;;;8.80;99.90;;;;;;5074616;28;20510;-71
2023/01/03 08:50:25;;;;;;;0.75;0.75;;;8.70;99.90;;;;;;5074369;28;20535;-71
2023/01/03 08:52:52;;;;;;;1.55;1.45;;;8.80;99.90;;;;;;5072914;28;20193;-71
2023/01/03 08:55:18;;;;;;;0.45;0.45;;;8.80;99.90;;;;;;5073394;28;20260;-72
2023/01/03 08:57:44;;;;;;;0.40;0.40;;;8.90;99.90;;;;;;5074002;28;20631;-71
2023/01/03 09:00:10;;;;;;;1.50;0.90;;;9.00;99.90;;;;;;5074052;28;20746;-71
2023/01/03 09:02:36;;;;;;;0.40;0.40;;;8.90;99.90;;;;;;5074180;28;20569;-72
2023/01/03 09:05:02;;;;;;;0.80;0.80;;;9.00;99.90;;;;;;5074068;28;20165;-72
2023/01/03 09:07:27;;;;;;;0.40;0.40;;;9.00;99.90;;;;;;5073941;28;20408;-72
2023/01/03 09:09:53;;;;;;;0.70;0.53;;;9.00;99.90;;;;;;5074043;28;20544;-71
2023/01/03 09:12:19;;;;;;;0.40;0.40;;;9.00;99.90;;;;;;5072060;28;20260;-69
2023/01/03 09:14:44;;;;;;;0.73;0.73;;;9.00;99.90;;;;;;5073914;28;20173;-70
2023/01/03 09:17:10;;;;;;;0.30;0.30;;;9.00;99.90;;;;;;5073877;28;20174;-71
2023/01/03 09:19:36;;;;;;;0.30;0.30;;;9.10;99.90;;;;;;5070578;28;20264;-70
2023/01/03 09:22:02;;;;;;;2.00;0.60;;;9.20;99.90;;;;;;5073617;28;20424;-73
2023/01/03 09:24:27;;;;;;;0.30;0.30;;;9.30;99.90;;;;;;5073696;28;20698;-70
2023/01/03 09:26:53;;;;;;;0.40;0.40;;;9.30;99.90;;;;;;5074277;28;20279;-70
2023/01/03 09:29:19;;;;;;;0.40;0.40;;;9.30;99.90;;;;;;5073482;28;20256;-69
2023/01/03 09:31:45;;;;;;;0.50;0.50;;;9.20;99.90;;;;;;5073686;28;20339;-70
2023/01/03 09:34:11;;;;;;;0.67;0.40;;;9.20;99.90;;;;;;5073686;28;20407;-71
2023/01/03 09:36:37;;;;;;;0.40;0.40;;;9.20;99.90;;;;;;5073791;28;20663;-73
2023/01/03 09:39:04;;;;;;;1.42;1.27;;;9.30;99.90;;;;;;5073438;28;20213;-73
2023/01/03 09:41:31;;;;;;;1.93;0.60;;;9.40;99.90;;;;;;5072820;28;20185;-72
2023/01/03 09:44:01;;;;;;;2.05;1.15;;;9.50;99.90;;;;;;5071951;28;20201;-71
2023/01/03 09:46:28;;;;;;;0.40;0.40;;;9.60;99.90;;;;;;5073880;28;20657;-69
2023/01/03 09:48:54;;;;;;;0.50;0.50;;;9.60;99.90;;;;;;5072407;28;20586;-71
2023/01/03 10:06:10;;;;;;;0.55;0.52;;;9.90;99.90;;;;;;5072487;28;20171;-69
2023/01/03 10:09:00;;;;;;;1.13;1.02;;;9.90;99.90;;;;;;5072291;28;20170;-69
2023/01/03 10:11:53;;;;;;;0.98;0.98;;;9.90;99.90;;;;;;5073295;28;20247;-70
2023/01/03 10:14:33;;;;;;;1.05;0.73;;;9.80;99.80;;;;;;5073402;28;20245;-70
2023/01/03 10:17:27;;;;;;;0.63;0.63;;;9.70;99.90;;;;;;5071162;28;20725;-71
2023/01/03 10:20:30;;;;;;;0.55;0.52;;;9.70;99.90;;;;;;5071333;28;20154;-71
2023/01/03 10:22:56;;;;;;;1.08;0.98;;;9.80;99.90;;;;;;5072327;28;20193;-71
2023/01/03 10:25:23;;;;;;;0.40;0.40;;;9.90;99.90;;;;;;5071808;28;20482;-70
2023/01/03 10:28:10;;;;;;;0.85;0.68;;;10.10;99.50;;;;;;5073197;28;20526;-70
2023/01/03 10:30:45;;;;;;;0.30;0.30;;;10.10;99.20;;;;;;5071138;28;20193;-71
2023/01/03 10:33:28;;;;;;;1.80;0.67;;;10.20;98.90;;;;;;5073615;28;20244;-69
2023/01/03 10:35:55;;;;;;;0.77;0.77;;;10.30;99.00;;;;;;5072405;28;20392;-69
2023/01/03 10:38:24;;;;;;;0.30;0.30;;;10.40;98.80;;;;;;5071475;28;20803;-70
2023/01/03 10:40:55;;;;;;;1.03;0.40;;;10.50;98.50;;;;;;5074265;28;20884;-71
2023/01/03 10:43:28;;;;;;;0.30;0.30;;;10.70;98.20;;;;;;5076781;28;20434;-71
2023/01/03 10:45:55;;;;;;;0.40;0.40;;;10.90;97.90;;;;;;5076367;28;20656;-71
2023/01/03 10:48:21;;;;;;;0.60;0.60;;;11.00;97.60;;;;;;5076627;28;20889;-69
2023/01/03 10:50:49;;;;;;;0.60;0.60;;;10.90;96.70;;;;;;5076429;28;20824;-70
2023/01/03 10:53:18;;;;;;;0.57;0.57;;;10.80;96.90;;;;;;5076558;28;20166;-71
2023/01/03 10:55:48;;;;;;;0.68;0.68;;;10.70;97.10;;;;;;5074900;28;20657;-70
2023/01/03 10:58:16;;;;;;;0.30;0.30;;;10.70;97.40;;;;;;5076877;28;20647;-70
2023/01/03 11:00:42;;;;;;;0.30;0.30;;;10.50;97.60;;;;;;5076219;28;20888;-71
2023/01/03 11:03:08;;;;;;;0.40;0.40;;;10.40;97.90;;;;;;5076559;28;20263;-70
2023/01/03 11:05:34;;;;;;;0.30;0.30;;;10.30;98.10;;;;;;5076353;28;20172;-70
2023/01/03 11:08:10;;;;;;;0.30;0.30;;;10.20;98.60;;;;;;5076139;28;20178;-68
2023/01/03 11:10:47;;;;;;;0.60;0.60;;;10.00;98.30;;;;;;5074123;28;20537;-71
2023/01/03 11:13:42;;;;;;;0.30;0.30;;;9.70;98.60;;;;;;5075456;28;20188;-70
2023/01/03 11:16:16;;;;;;;0.30;0.30;;;9.50;99.40;;;;;;5074838;28;20212;-69
2023/01/03 11:18:47;;;;;;;0.30;0.30;;;9.30;99.90;;;;;;5075802;28;20193;-70
2023/01/03 11:21:25;;;;;;;0.30;0.30;;;9.30;99.90;;;;;;5074503;28;20190;-70
2023/01/03 11:24:11;;;;;;;0.30;0.30;;;9.20;99.90;;;;;;5073584;28;20253;-69
2023/01/03 11:26:53;;;;;;;0.30;0.30;;;9.20;99.90;;;;;;5072418;28;20165;-70
2023/01/03 11:29:29;;;;;;;0.30;0.30;;;9.30;99.90;;;;;;5072521;28;20646;-70
2023/01/03 11:32:05;;;;;;;0.30;0.30;;;9.40;99.90;;;;;;5074884;28;20189;-70
2023/01/03 11:34:58;;;;;;;0.43;0.43;;;9.60;99.90;;;;;;5073118;28;20189;-70
2023/01/03 11:37:40;;;;;;;0.40;0.40;;;9.90;99.90;;;;;;5075534;28;20189;-70
2023/01/03 11:40:11;;;;;;;0.30;0.30;;;10.30;99.90;;;;;;5076275;28;20197;-69
2023/01/03 11:43:02;;;;;;;0.30;0.30;;;10.70;98.50;;;;;;5075699;28;20186;-71
2023/01/03 11:45:31;;;;;;;0.30;0.30;;;10.90;96.60;;;;;;5075730;28;20165;-69
2023/01/03 11:48:26;;;;;;;0.50;0.50;;;11.00;96.10;;;;;;5075946;28;20433;-70
2023/01/03 11:50:57;;;;;;;0.40;0.40;;;11.40;95.70;;;;;;5075369;28;20402;-69
2023/01/03 11:53:49;;;;;;;0.43;0.43;;;11.70;94.80;;;;;;5075381;28;20919;-70
2023/01/03 11:56:23;;;;;;;0.70;0.50;;;11.90;94.00;;;;;;5074271;28;20443;-69
2023/01/03 11:59:05;;;;;;;0.30;0.30;;;12.00;93.70;;;;;;5075773;28;20438;-71
2023/01/03 12:01:59;;;;;;;0.30;0.30;;;12.10;93.50;;;;;;5075140;28;20443;-69
2023/01/03 12:05:02;;;;;;;0.47;0.47;;;12.20;93.60;;;;;;5075263;28;20403;-71
2023/01/03 12:07:51;;;;;;;0.30;0.30;;;12.00;93.30;;;;;;5075528;28;20391;-68
2023/01/03 12:10:46;;;;;;;0.85;0.82;;;11.80;93.90;;;;;;5075339;28;20746;-71
2023/01/03 12:13:47;;;;;;;0.30;0.30;;;11.70;93.60;;;;;;5075543;28;20165;-71
2023/01/03 12:16:25;;;;;;;0.30;0.30;;;11.40;93.80;;;;;;5072105;28;20188;-71
2023/01/03 12:19:03;;;;;;;0.30;0.30;;;11.10;94.00;;;;;;5075040;28;20208;-70
2023/01/03 12:21:42;;;;;;;0.30;0.30;;;10.80;95.20;;;;;;5072604;28;20199;-71
2023/01/03 12:24:20;;;;;;;0.30;0.30;;;10.40;96.20;;;;;;5073394;28;20596;-70
2023/01/03 12:26:55;;;;;;;0.30;0.30;;;10.10;97.00;;;;;;5074971;28;20544;-71
2023/01/03 12:29:58;;;;;;;0.30;0.30;;;9.80;98.50;;;;;;5072778;28;20185;-72
2023/01/03 12:32:45;;;;;;;0.30;0.30;;;9.50;99.50;;;;;;5073876;28;20673;-71
2023/01/03 12:35:28;;;;;;;0.50;0.50;;;9.20;99.90;;;;;;5074757;28;20634;-71
2023/01/03 12:37:56;;;;;;;0.30;0.30;;;9.20;99.90;;;;;;5074274;28;20200;-69
2023/01/03 12:40:39;;;;;;;0.30;0.30;;;9.30;99.90;;;;;;5074991;28;20174;-71
2023/01/03 12:43:29;;;;;;;0.40;0.40;;;9.30;99.90;;;;;;5074126;28;20205;-71
2023/01/03 12:46:08;;;;;;;0.30;0.30;;;9.30;99.90;;;;;;5072324;28;20173;-70
2023/01/03 12:48:45;;;;;;;6.63;3.13;;;9.30;99.90;;;;;;5074738;28;20541;-69
2023/01/03 12:51:14;;;;;;;0.30;0.30;;;9.30;99.90;;;;;;5074824;28;20185;-71
2023/01/03 12:53:49;;;;;;;0.30;0.30;;;9.40;99.90;;;;;;5073334;28;20177;-69
2023/01/03 12:56:51;;;;;;;0.40;0.40;;;9.40;99.90;;;;;;5072171;28;20165;-70
2023/01/03 12:59:39;;;;;;;0.30;0.30;;;9.20;99.90;;;;;;5074663;28;20196;-71
2023/01/03 13:02:20;;;;;;;0.40;0.40;;;9.30;99.90;;;;;;5074199;28;20256;-69
2023/01/03 13:04:51;;;;;;;0.30;0.30;;;9.20;99.90;;;;;;5073556;28;20169;-72
2023/01/03 13:07:30;;;;;;;0.30;0.30;;;9.10;99.90;;;;;;5073207;28;20589;-71
2023/01/03 13:10:04;;;;;;;0.30;0.30;;;9.10;99.90;;;;;;5074157;28;20205;-71
2023/01/03 13:12:35;;;;;;;0.30;0.30;;;9.00;99.90;;;;;;5073936;28;20650;-69
2023/01/03 13:15:01;;;;;;;0.40;0.40;;;9.00;99.90;;;;;;5073769;28;20176;-71
2023/01/03 13:17:28;;;;;;;0.30;0.30;;;9.20;99.90;;;;;;5073869;28;20166;-70
2023/01/03 13:20:29;;;;;;;0.30;0.30;;;9.10;99.90;;;;;;5074496;28;20170;-71
2023/01/03 13:22:59;;;;;;;0.70;0.70;;;9.20;99.90;;;;;;5073910;28;20218;-70
2023/01/03 13:25:37;;;;;;;0.40;0.40;;;9.20;99.90;;;;;;5074104;28;20173;-71
2023/01/03 13:28:19;;;;;;;0.30;0.30;;;9.20;99.90;;;;;;5074220;28;20200;-72
2023/01/03 13:30:46;;;;;;;0.40;0.40;;;9.10;99.90;;;;;;5073772;28;20669;-70
2023/01/03 13:33:12;;;;;;;0.40;0.40;;;9.30;99.90;;;;;;5073910;28;20263;-71
2023/01/03 13:35:44;;;;;;;0.30;0.30;;;9.30;99.90;;;;;;5073836;28;20511;-70
2023/01/03 13:38:34;;;;;;;0.30;0.30;;;9.50;99.90;;;;;;5073940;28;20581;-68
2023/01/03 13:41:08;;;;;;;0.30;0.30;;;9.50;99.90;;;;;;5073912;28;20177;-70
2023/01/03 13:43:35;;;;;;;0.40;0.40;;;9.50;99.90;;;;;;5073862;28;20162;-69
2023/01/03 13:46:24;;;;;;;0.30;0.30;;;9.50;99.90;;;;;;5073544;28;20173;-70
2023/01/03 13:48:54;;;;;;;0.40;0.40;;;9.40;99.90;;;;;;5073444;28;20154;-70
2023/01/03 13:51:20;;;;;;;0.80;0.80;;;9.30;99.90;;;;;;5073879;28;20193;-70
2023/01/03 13:54:01;;;;;;;0.40;0.40;;;9.30;99.90;;;;;;5073600;28;20177;-69
2023/01/03 13:56:53;;;;;;;0.40;0.40;;;9.30;99.90;;;;;;5073754;28;20177;-69
2023/01/03 13:59:28;;;;;;;0.50;0.50;;;9.40;99.90;;;;;;5073397;28;20208;-70
2023/01/03 14:01:59;;;;;;;0.80;0.80;;;9.40;99.90;;;;;;5073690;28;20246;-71
2023/01/03 14:04:46;;;;;;;0.60;0.60;;;9.40;99.90;;;;;;5073062;28;20162;-70
2023/01/03 14:07:20;;;;;;;1.02;1.02;;;9.30;99.90;;;;;;5073588;28;20169;-69
2023/01/03 14:09:55;;;;;;;0.30;0.30;;;9.10;99.90;;;;;;5071297;28;20527;-72
2023/01/03 14:12:20;;;;;;;0.60;0.60;;;9.00;99.90;;;;;;5073864;28;20584;-71
2023/01/03 14:14:56;;;;;;;0.40;0.40;;;9.00;99.90;;;;;;5072816;28;20165;-71
2023/01/03 14:17:28;;;;;;;0.30;0.30;;;8.90;99.90;;;;;;5076995;28;20220;-70
2023/01/03 14:19:56;;;;;;;0.30;0.30;;;9.00;99.90;;;;;;5075971;28;20182;-72
2023/01/03 14:22:32;;;;;;;0.30;0.30;;;9.00;99.90;;;;;;5073871;28;20189;-70